sensor_id;sensor_type;location;lat;lon;timestamp;temperature;humidity
14079;DHT22;7115;50.150;8.568;2022-07-06T00:00:41;20.70;71.20
14079;DHT22;7115;50.150;8.568;2022-07-06T00:03:08;20.70;71.40
14079;DHT22;7115;50.150;8.568;2022-07-06T00:05:35;20.60;71.50
14079;DHT22;7115;50.150;8.568;2022-07-06T00:08:01;20.60;71.80
14079;DHT22;7115;50.150;8.568;2022-07-06T00:10:28;20.50;71.90
14079;DHT22;7115;50.150;8.568;2022-07-06T00:12:55;20.50;72.10
14079;DHT22;7115;50.150;8.568;2022-07-06T00:15:22;20.50;72.40
14079;DHT22;7115;50.150;8.568;2022-07-06T00:17:49;20.40;72.60
14079;DHT22;7115;50.150;8.568;2022-07-06T00:20:16;20.40;72.90
14079;DHT22;7115;50.150;8.568;2022-07-06T00:22:42;20.30;73.00
14079;DHT22;7115;50.150;8.568;2022-07-06T00:25:09;20.30;73.30
14079;DHT22;7115;50.150;8.568;2022-07-06T00:27:36;20.20;73.40
14079;DHT22;7115;50.150;8.568;2022-07-06T00:30:03;20.30;73.70
14079;DHT22;7115;50.150;8.568;2022-07-06T00:32:30;20.20;73.50
14079;DHT22;7115;50.150;8.568;2022-07-06T00:34:57;20.20;73.90
14079;DHT22;7115;50.150;8.568;2022-07-06T00:37:23;20.20;74.10
14079;DHT22;7115;50.150;8.568;2022-07-06T00:39:50;20.20;74.30
14079;DHT22;7115;50.150;8.568;2022-07-06T00:42:17;20.10;74.40
14079;DHT22;7115;50.150;8.568;2022-07-06T00:44:59;20.10;74.60
14079;DHT22;7115;50.150;8.568;2022-07-06T00:47:26;20.00;75.00
14079;DHT22;7115;50.150;8.568;2022-07-06T00:49:52;19.90;75.00
14079;DHT22;7115;50.150;8.568;2022-07-06T00:52:38;19.80;75.30
14079;DHT22;7115;50.150;8.568;2022-07-06T00:55:05;19.80;75.50
14079;DHT22;7115;50.150;8.568;2022-07-06T00:57:32;19.70;75.70
14079;DHT22;7115;50.150;8.568;2022-07-06T00:59:59;19.70;76.00
14079;DHT22;7115;50.150;8.568;2022-07-06T01:02:26;19.60;76.20
14079;DHT22;7115;50.150;8.568;2022-07-06T01:04:52;19.50;76.50
14079;DHT22;7115;50.150;8.568;2022-07-06T01:07:19;19.40;76.80
14079;DHT22;7115;50.150;8.568;2022-07-06T01:09:46;19.30;77.00
14079;DHT22;7115;50.150;8.568;2022-07-06T01:12:13;19.30;77.40
14079;DHT22;7115;50.150;8.568;2022-07-06T01:14:40;19.20;77.70
14079;DHT22;7115;50.150;8.568;2022-07-06T01:17:07;19.20;77.90
14079;DHT22;7115;50.150;8.568;2022-07-06T01:19:34;19.20;78.10
14079;DHT22;7115;50.150;8.568;2022-07-06T01:22:02;19.30;78.30
14079;DHT22;7115;50.150;8.568;2022-07-06T01:24:29;19.30;78.40
14079;DHT22;7115;50.150;8.568;2022-07-06T01:26:56;19.20;78.40
14079;DHT22;7115;50.150;8.568;2022-07-06T01:29:23;19.20;78.60
14079;DHT22;7115;50.150;8.568;2022-07-06T01:31:50;19.10;78.60
14079;DHT22;7115;50.150;8.568;2022-07-06T01:34:17;19.10;78.90
14079;DHT22;7115;50.150;8.568;2022-07-06T01:36:44;19.00;79.10
14079;DHT22;7115;50.150;8.568;2022-07-06T01:39:11;18.90;79.40
14079;DHT22;7115;50.150;8.568;2022-07-06T01:41:38;18.80;79.60
14079;DHT22;7115;50.150;8.568;2022-07-06T01:44:06;18.70;80.00
14079;DHT22;7115;50.150;8.568;2022-07-06T01:46:32;18.60;80.20
14079;DHT22;7115;50.150;8.568;2022-07-06T01:48:59;18.50;80.50
14079;DHT22;7115;50.150;8.568;2022-07-06T01:51:26;18.40;80.70
14079;DHT22;7115;50.150;8.568;2022-07-06T01:53:53;18.30;81.00
14079;DHT22;7115;50.150;8.568;2022-07-06T01:56:20;18.30;81.40
14079;DHT22;7115;50.150;8.568;2022-07-06T01:58:47;18.20;81.70
14079;DHT22;7115;50.150;8.568;2022-07-06T02:01:19;18.00;81.90
14079;DHT22;7115;50.150;8.568;2022-07-06T02:03:47;17.90;82.30
14079;DHT22;7115;50.150;8.568;2022-07-06T02:06:14;17.90;82.60
14079;DHT22;7115;50.150;8.568;2022-07-06T02:08:42;17.80;82.80
14079;DHT22;7115;50.150;8.568;2022-07-06T02:11:09;17.80;83.00
14079;DHT22;7115;50.150;8.568;2022-07-06T02:13:37;17.80;83.20
14079;DHT22;7115;50.150;8.568;2022-07-06T02:16:04;17.80;83.30
14079;DHT22;7115;50.150;8.568;2022-07-06T02:18:31;17.80;83.20
14079;DHT22;7115;50.150;8.568;2022-07-06T02:20:58;17.80;83.50
14079;DHT22;7115;50.150;8.568;2022-07-06T02:23:25;17.80;83.70
14079;DHT22;7115;50.150;8.568;2022-07-06T02:25:52;17.80;83.70
14079;DHT22;7115;50.150;8.568;2022-07-06T02:28:19;17.80;84.00
14079;DHT22;7115;50.150;8.568;2022-07-06T02:30:46;17.80;84.10
14079;DHT22;7115;50.150;8.568;2022-07-06T02:33:13;17.80;84.10
14079;DHT22;7115;50.150;8.568;2022-07-06T02:35:40;17.70;84.20
14079;DHT22;7115;50.150;8.568;2022-07-06T02:38:09;17.60;84.30
14079;DHT22;7115;50.150;8.568;2022-07-06T02:40:36;17.60;84.40
14079;DHT22;7115;50.150;8.568;2022-07-06T02:43:04;17.60;84.50
14079;DHT22;7115;50.150;8.568;2022-07-06T02:45:33;17.60;84.60
14079;DHT22;7115;50.150;8.568;2022-07-06T02:48:00;17.60;84.70
14079;DHT22;7115;50.150;8.568;2022-07-06T02:50:27;17.60;84.70
14079;DHT22;7115;50.150;8.568;2022-07-06T02:52:54;17.60;84.70
14079;DHT22;7115;50.150;8.568;2022-07-06T02:55:22;17.60;84.60
14079;DHT22;7115;50.150;8.568;2022-07-06T02:57:48;17.60;84.60
14079;DHT22;7115;50.150;8.568;2022-07-06T03:00:16;17.60;84.40
14079;DHT22;7115;50.150;8.568;2022-07-06T03:02:43;17.60;84.40
14079;DHT22;7115;50.150;8.568;2022-07-06T03:05:09;17.60;84.30
14079;DHT22;7115;50.150;8.568;2022-07-06T03:07:36;17.70;84.20
14079;DHT22;7115;50.150;8.568;2022-07-06T03:10:03;17.70;84.10
14079;DHT22;7115;50.150;8.568;2022-07-06T03:12:30;17.70;83.80
14079;DHT22;7115;50.150;8.568;2022-07-06T03:14:57;17.70;84.00
14079;DHT22;7115;50.150;8.568;2022-07-06T03:17:24;17.70;84.00
14079;DHT22;7115;50.150;8.568;2022-07-06T03:19:51;17.70;83.80
14079;DHT22;7115;50.150;8.568;2022-07-06T03:22:19;17.70;83.80
14079;DHT22;7115;50.150;8.568;2022-07-06T03:24:45;17.70;83.70
14079;DHT22;7115;50.150;8.568;2022-07-06T03:27:12;17.70;83.70
14079;DHT22;7115;50.150;8.568;2022-07-06T03:29:39;17.70;83.60
14079;DHT22;7115;50.150;8.568;2022-07-06T03:32:06;17.70;83.60
14079;DHT22;7115;50.150;8.568;2022-07-06T03:34:33;17.60;83.50
14079;DHT22;7115;50.150;8.568;2022-07-06T03:37:00;17.70;83.60
14079;DHT22;7115;50.150;8.568;2022-07-06T03:39:26;17.70;83.60
14079;DHT22;7115;50.150;8.568;2022-07-06T03:41:53;17.70;83.60
14079;DHT22;7115;50.150;8.568;2022-07-06T03:44:20;17.70;83.60
14079;DHT22;7115;50.150;8.568;2022-07-06T03:46:47;17.80;83.60
14079;DHT22;7115;50.150;8.568;2022-07-06T03:49:13;17.90;83.60
14079;DHT22;7115;50.150;8.568;2022-07-06T03:51:40;17.90;83.40
14079;DHT22;7115;50.150;8.568;2022-07-06T03:54:07;18.00;83.50
14079;DHT22;7115;50.150;8.568;2022-07-06T03:56:34;18.00;83.40
14079;DHT22;7115;50.150;8.568;2022-07-06T03:59:01;18.10;83.50
14079;DHT22;7115;50.150;8.568;2022-07-06T04:01:28;18.10;83.30
14079;DHT22;7115;50.150;8.568;2022-07-06T04:03:56;18.10;83.30
14079;DHT22;7115;50.150;8.568;2022-07-06T04:06:23;18.10;83.20
14079;DHT22;7115;50.150;8.568;2022-07-06T04:08:50;18.20;83.20
14079;DHT22;7115;50.150;8.568;2022-07-06T04:11:16;18.20;83.20
14079;DHT22;7115;50.150;8.568;2022-07-06T04:13:43;18.20;83.20
14079;DHT22;7115;50.150;8.568;2022-07-06T04:16:10;18.20;83.10
14079;DHT22;7115;50.150;8.568;2022-07-06T04:18:37;18.30;83.30
14079;DHT22;7115;50.150;8.568;2022-07-06T04:21:04;18.20;83.20
14079;DHT22;7115;50.150;8.568;2022-07-06T04:23:31;18.30;83.30
14079;DHT22;7115;50.150;8.568;2022-07-06T04:25:57;18.30;83.30
14079;DHT22;7115;50.150;8.568;2022-07-06T04:28:24;18.30;83.30
14079;DHT22;7115;50.150;8.568;2022-07-06T04:30:51;18.30;83.40
14079;DHT22;7115;50.150;8.568;2022-07-06T04:33:18;18.40;83.50
14079;DHT22;7115;50.150;8.568;2022-07-06T04:35:45;18.40;83.60
14079;DHT22;7115;50.150;8.568;2022-07-06T04:38:12;18.40;83.70
14079;DHT22;7115;50.150;8.568;2022-07-06T04:40:39;18.40;83.70
14079;DHT22;7115;50.150;8.568;2022-07-06T04:43:05;18.40;83.70
14079;DHT22;7115;50.150;8.568;2022-07-06T04:45:32;18.40;83.70
14079;DHT22;7115;50.150;8.568;2022-07-06T04:47:59;18.40;83.70
14079;DHT22;7115;50.150;8.568;2022-07-06T04:50:26;18.40;84.50
14079;DHT22;7115;50.150;8.568;2022-07-06T04:52:54;18.40;83.90
14079;DHT22;7115;50.150;8.568;2022-07-06T04:55:20;18.40;83.90
14079;DHT22;7115;50.150;8.568;2022-07-06T04:57:47;18.50;84.00
14079;DHT22;7115;50.150;8.568;2022-07-06T05:00:14;18.50;84.00
14079;DHT22;7115;50.150;8.568;2022-07-06T05:02:41;18.50;84.00
14079;DHT22;7115;50.150;8.568;2022-07-06T05:05:08;18.60;84.00
14079;DHT22;7115;50.150;8.568;2022-07-06T05:07:38;18.60;84.00
14079;DHT22;7115;50.150;8.568;2022-07-06T05:10:11;18.80;84.20
14079;DHT22;7115;50.150;8.568;2022-07-06T05:12:38;18.80;84.10
14079;DHT22;7115;50.150;8.568;2022-07-06T05:15:06;18.80;84.00
14079;DHT22;7115;50.150;8.568;2022-07-06T05:17:33;18.90;84.00
14079;DHT22;7115;50.150;8.568;2022-07-06T05:19:59;18.90;83.90
14079;DHT22;7115;50.150;8.568;2022-07-06T05:22:26;19.00;83.90
14079;DHT22;7115;50.150;8.568;2022-07-06T05:24:53;19.00;83.80
14079;DHT22;7115;50.150;8.568;2022-07-06T05:27:20;19.00;83.70
14079;DHT22;7115;50.150;8.568;2022-07-06T05:29:47;19.00;83.70
14079;DHT22;7115;50.150;8.568;2022-07-06T05:32:13;19.10;83.80
14079;DHT22;7115;50.150;8.568;2022-07-06T05:34:40;19.10;83.80
14079;DHT22;7115;50.150;8.568;2022-07-06T05:37:07;19.10;83.70
14079;DHT22;7115;50.150;8.568;2022-07-06T05:39:34;19.20;83.50
14079;DHT22;7115;50.150;8.568;2022-07-06T05:42:01;19.20;83.60
14079;DHT22;7115;50.150;8.568;2022-07-06T05:44:28;19.20;83.60
14079;DHT22;7115;50.150;8.568;2022-07-06T05:46:55;19.20;83.50
14079;DHT22;7115;50.150;8.568;2022-07-06T05:49:42;19.30;83.60
14079;DHT22;7115;50.150;8.568;2022-07-06T05:52:27;19.30;83.50
14079;DHT22;7115;50.150;8.568;2022-07-06T05:54:54;19.40;83.30
14079;DHT22;7115;50.150;8.568;2022-07-06T05:57:21;19.40;83.10
14079;DHT22;7115;50.150;8.568;2022-07-06T05:59:48;19.50;82.90
14079;DHT22;7115;50.150;8.568;2022-07-06T06:02:14;19.50;82.70
14079;DHT22;7115;50.150;8.568;2022-07-06T06:04:41;19.60;82.60
14079;DHT22;7115;50.150;8.568;2022-07-06T06:07:08;19.60;82.50
14079;DHT22;7115;50.150;8.568;2022-07-06T06:09:35;19.60;82.40
14079;DHT22;7115;50.150;8.568;2022-07-06T06:12:02;19.60;82.50
14079;DHT22;7115;50.150;8.568;2022-07-06T06:14:28;19.60;82.40
14079;DHT22;7115;50.150;8.568;2022-07-06T06:16:55;19.60;82.50
14079;DHT22;7115;50.150;8.568;2022-07-06T06:19:22;19.60;82.50
14079;DHT22;7115;50.150;8.568;2022-07-06T06:21:49;19.60;82.50
14079;DHT22;7115;50.150;8.568;2022-07-06T06:24:18;19.50;82.70
14079;DHT22;7115;50.150;8.568;2022-07-06T06:26:45;19.40;82.90
14079;DHT22;7115;50.150;8.568;2022-07-06T06:29:11;19.30;83.10
14079;DHT22;7115;50.150;8.568;2022-07-06T06:31:38;19.30;83.30
14079;DHT22;7115;50.150;8.568;2022-07-06T06:34:07;19.20;83.30
14079;DHT22;7115;50.150;8.568;2022-07-06T06:36:35;19.20;83.40
14079;DHT22;7115;50.150;8.568;2022-07-06T06:39:02;19.20;83.40
14079;DHT22;7115;50.150;8.568;2022-07-06T06:41:29;19.20;83.50
14079;DHT22;7115;50.150;8.568;2022-07-06T06:43:56;19.10;83.70
14079;DHT22;7115;50.150;8.568;2022-07-06T06:46:23;19.10;83.80
14079;DHT22;7115;50.150;8.568;2022-07-06T06:48:50;19.20;83.90
14079;DHT22;7115;50.150;8.568;2022-07-06T06:51:17;19.30;83.70
14079;DHT22;7115;50.150;8.568;2022-07-06T06:53:45;19.30;84.30
14079;DHT22;7115;50.150;8.568;2022-07-06T06:56:13;19.40;83.40
14079;DHT22;7115;50.150;8.568;2022-07-06T06:58:41;19.40;83.30
14079;DHT22;7115;50.150;8.568;2022-07-06T07:01:29;19.60;83.30
14079;DHT22;7115;50.150;8.568;2022-07-06T07:03:57;19.70;82.90
14079;DHT22;7115;50.150;8.568;2022-07-06T07:06:25;19.80;82.80
14079;DHT22;7115;50.150;8.568;2022-07-06T07:08:53;20.00;82.60
14079;DHT22;7115;50.150;8.568;2022-07-06T07:11:22;20.10;82.10
14079;DHT22;7115;50.150;8.568;2022-07-06T07:13:49;20.10;81.60
14079;DHT22;7115;50.150;8.568;2022-07-06T07:16:16;20.00;81.50
14079;DHT22;7115;50.150;8.568;2022-07-06T07:18:44;20.10;81.50
14079;DHT22;7115;50.150;8.568;2022-07-06T07:21:12;20.00;81.20
14079;DHT22;7115;50.150;8.568;2022-07-06T07:23:39;20.00;81.20
14079;DHT22;7115;50.150;8.568;2022-07-06T07:26:07;20.10;81.10
14079;DHT22;7115;50.150;8.568;2022-07-06T07:28:35;20.20;80.70
14079;DHT22;7115;50.150;8.568;2022-07-06T07:31:04;20.20;80.40
14079;DHT22;7115;50.150;8.568;2022-07-06T07:33:32;20.20;80.40
14079;DHT22;7115;50.150;8.568;2022-07-06T07:36:00;20.40;80.50
14079;DHT22;7115;50.150;8.568;2022-07-06T07:38:29;20.40;79.90
14079;DHT22;7115;50.150;8.568;2022-07-06T07:40:57;20.40;79.60
14079;DHT22;7115;50.150;8.568;2022-07-06T07:43:25;20.40;79.40
14079;DHT22;7115;50.150;8.568;2022-07-06T07:45:53;20.40;79.40
14079;DHT22;7115;50.150;8.568;2022-07-06T07:48:20;20.30;79.20
14079;DHT22;7115;50.150;8.568;2022-07-06T07:50:48;20.30;79.20
14079;DHT22;7115;50.150;8.568;2022-07-06T07:53:14;20.30;79.10
14079;DHT22;7115;50.150;8.568;2022-07-06T07:55:41;20.40;79.00
14079;DHT22;7115;50.150;8.568;2022-07-06T07:58:09;20.60;78.80
14079;DHT22;7115;50.150;8.568;2022-07-06T08:00:36;20.90;78.50
14079;DHT22;7115;50.150;8.568;2022-07-06T08:03:03;21.10;77.90
14079;DHT22;7115;50.150;8.568;2022-07-06T08:05:30;21.30;77.10
14079;DHT22;7115;50.150;8.568;2022-07-06T08:07:57;21.40;76.50
14079;DHT22;7115;50.150;8.568;2022-07-06T08:10:24;21.40;75.90
14079;DHT22;7115;50.150;8.568;2022-07-06T08:12:51;21.50;75.50
14079;DHT22;7115;50.150;8.568;2022-07-06T08:15:19;21.60;75.10
14079;DHT22;7115;50.150;8.568;2022-07-06T08:17:46;21.70;74.80
14079;DHT22;7115;50.150;8.568;2022-07-06T08:20:14;21.70;74.40
14079;DHT22;7115;50.150;8.568;2022-07-06T08:22:44;21.80;74.20
14079;DHT22;7115;50.150;8.568;2022-07-06T08:25:11;21.70;73.70
14079;DHT22;7115;50.150;8.568;2022-07-06T08:27:39;21.70;73.50
14079;DHT22;7115;50.150;8.568;2022-07-06T08:30:08;21.70;73.50
14079;DHT22;7115;50.150;8.568;2022-07-06T08:32:39;21.70;73.30
14079;DHT22;7115;50.150;8.568;2022-07-06T08:35:26;21.80;73.00
14079;DHT22;7115;50.150;8.568;2022-07-06T08:37:53;21.80;72.50
14079;DHT22;7115;50.150;8.568;2022-07-06T08:40:20;21.70;72.20
14079;DHT22;7115;50.150;8.568;2022-07-06T08:42:47;21.70;72.00
14079;DHT22;7115;50.150;8.568;2022-07-06T08:45:16;21.80;71.80
14079;DHT22;7115;50.150;8.568;2022-07-06T08:47:44;21.90;71.50
14079;DHT22;7115;50.150;8.568;2022-07-06T08:50:11;22.10;71.10
14079;DHT22;7115;50.150;8.568;2022-07-06T08:52:39;22.10;70.60
14079;DHT22;7115;50.150;8.568;2022-07-06T08:55:08;22.10;70.50
14079;DHT22;7115;50.150;8.568;2022-07-06T08:57:35;22.10;70.30
14079;DHT22;7115;50.150;8.568;2022-07-06T09:00:02;22.20;70.00
14079;DHT22;7115;50.150;8.568;2022-07-06T09:02:29;22.10;69.30
14079;DHT22;7115;50.150;8.568;2022-07-06T09:04:58;22.00;69.30
14079;DHT22;7115;50.150;8.568;2022-07-06T09:07:28;21.90;69.20
14079;DHT22;7115;50.150;8.568;2022-07-06T09:10:20;21.90;69.20
14079;DHT22;7115;50.150;8.568;2022-07-06T09:12:49;22.00;69.00
14079;DHT22;7115;50.150;8.568;2022-07-06T09:15:16;22.00;68.70
14079;DHT22;7115;50.150;8.568;2022-07-06T09:17:44;22.20;68.40
14079;DHT22;7115;50.150;8.568;2022-07-06T09:20:12;22.30;67.80
14079;DHT22;7115;50.150;8.568;2022-07-06T09:22:40;22.50;67.40
14079;DHT22;7115;50.150;8.568;2022-07-06T09:25:13;22.60;67.00
14079;DHT22;7115;50.150;8.568;2022-07-06T09:27:45;22.70;66.60
14079;DHT22;7115;50.150;8.568;2022-07-06T09:30:17;22.80;66.20
14079;DHT22;7115;50.150;8.568;2022-07-06T09:32:46;22.80;66.10
14079;DHT22;7115;50.150;8.568;2022-07-06T09:35:29;22.80;65.90
14079;DHT22;7115;50.150;8.568;2022-07-06T09:38:01;22.90;65.60
14079;DHT22;7115;50.150;8.568;2022-07-06T09:40:31;23.00;65.60
14079;DHT22;7115;50.150;8.568;2022-07-06T09:45:35;23.30;64.60
14079;DHT22;7115;50.150;8.568;2022-07-06T09:48:10;23.30;64.40
14079;DHT22;7115;50.150;8.568;2022-07-06T09:50:42;23.40;64.30
14079;DHT22;7115;50.150;8.568;2022-07-06T09:53:11;23.50;64.20
14079;DHT22;7115;50.150;8.568;2022-07-06T09:55:38;23.60;64.00
14079;DHT22;7115;50.150;8.568;2022-07-06T09:58:06;23.80;63.70
14079;DHT22;7115;50.150;8.568;2022-07-06T10:00:34;23.80;63.40
14079;DHT22;7115;50.150;8.568;2022-07-06T10:03:02;23.90;63.00
14079;DHT22;7115;50.150;8.568;2022-07-06T10:05:29;24.00;62.70
14079;DHT22;7115;50.150;8.568;2022-07-06T10:08:00;24.10;62.40
14079;DHT22;7115;50.150;8.568;2022-07-06T10:10:28;24.10;62.00
14079;DHT22;7115;50.150;8.568;2022-07-06T10:12:57;24.20;61.90
14079;DHT22;7115;50.150;8.568;2022-07-06T10:15:29;24.40;61.70
14079;DHT22;7115;50.150;8.568;2022-07-06T10:18:02;24.60;61.50
14079;DHT22;7115;50.150;8.568;2022-07-06T10:20:32;24.70;61.10
14079;DHT22;7115;50.150;8.568;2022-07-06T10:23:00;24.80;60.60
14079;DHT22;7115;50.150;8.568;2022-07-06T10:25:28;24.90;60.40
14079;DHT22;7115;50.150;8.568;2022-07-06T10:27:55;24.90;60.00
14079;DHT22;7115;50.150;8.568;2022-07-06T10:30:23;25.10;59.60
14079;DHT22;7115;50.150;8.568;2022-07-06T10:32:51;25.30;59.30
14079;DHT22;7115;50.150;8.568;2022-07-06T10:35:19;25.40;58.80
14079;DHT22;7115;50.150;8.568;2022-07-06T10:40:38;25.60;57.60
14079;DHT22;7115;50.150;8.568;2022-07-06T10:43:30;25.60;57.50
14079;DHT22;7115;50.150;8.568;2022-07-06T10:45:57;25.70;57.60
14079;DHT22;7115;50.150;8.568;2022-07-06T10:48:24;25.80;57.60
14079;DHT22;7115;50.150;8.568;2022-07-06T10:50:55;26.00;57.40
14079;DHT22;7115;50.150;8.568;2022-07-06T10:53:25;26.10;56.90
14079;DHT22;7115;50.150;8.568;2022-07-06T10:55:53;26.20;56.60
14079;DHT22;7115;50.150;8.568;2022-07-06T10:58:41;26.20;56.10
14079;DHT22;7115;50.150;8.568;2022-07-06T11:01:12;26.20;55.40
14079;DHT22;7115;50.150;8.568;2022-07-06T11:04:09;26.00;55.40
14079;DHT22;7115;50.150;8.568;2022-07-06T11:06:38;26.00;55.30
14079;DHT22;7115;50.150;8.568;2022-07-06T11:09:08;25.90;55.40
14079;DHT22;7115;50.150;8.568;2022-07-06T11:11:41;25.90;55.40
14079;DHT22;7115;50.150;8.568;2022-07-06T11:14:13;25.90;55.30
14079;DHT22;7115;50.150;8.568;2022-07-06T11:21:55;25.40;55.40
14079;DHT22;7115;50.150;8.568;2022-07-06T11:24:29;25.50;55.40
14079;DHT22;7115;50.150;8.568;2022-07-06T11:26:58;25.60;55.40
14079;DHT22;7115;50.150;8.568;2022-07-06T11:29:27;25.60;55.10
14079;DHT22;7115;50.150;8.568;2022-07-06T11:31:56;25.60;55.10
14079;DHT22;7115;50.150;8.568;2022-07-06T11:34:32;25.80;54.90
14079;DHT22;7115;50.150;8.568;2022-07-06T11:37:02;26.00;54.60
14079;DHT22;7115;50.150;8.568;2022-07-06T11:39:32;26.20;54.30
14079;DHT22;7115;50.150;8.568;2022-07-06T11:42:00;26.40;54.10
14079;DHT22;7115;50.150;8.568;2022-07-06T11:44:27;26.60;53.90
14079;DHT22;7115;50.150;8.568;2022-07-06T11:46:54;26.70;53.80
14079;DHT22;7115;50.150;8.568;2022-07-06T11:49:23;26.70;53.60
14079;DHT22;7115;50.150;8.568;2022-07-06T11:51:50;26.60;53.40
14079;DHT22;7115;50.150;8.568;2022-07-06T11:54:19;26.70;53.40
14079;DHT22;7115;50.150;8.568;2022-07-06T11:56:55;26.90;53.20
14079;DHT22;7115;50.150;8.568;2022-07-06T11:59:30;26.90;52.90
14079;DHT22;7115;50.150;8.568;2022-07-06T12:02:06;27.00;53.00
14079;DHT22;7115;50.150;8.568;2022-07-06T12:04:37;26.90;52.50
14079;DHT22;7115;50.150;8.568;2022-07-06T12:07:10;26.70;52.70
14079;DHT22;7115;50.150;8.568;2022-07-06T12:09:40;26.60;52.70
14079;DHT22;7115;50.150;8.568;2022-07-06T12:12:08;26.60;52.70
14079;DHT22;7115;50.150;8.568;2022-07-06T12:14:39;26.70;52.70
14079;DHT22;7115;50.150;8.568;2022-07-06T12:17:09;26.90;52.50
14079;DHT22;7115;50.150;8.568;2022-07-06T12:19:37;27.00;52.30
14079;DHT22;7115;50.150;8.568;2022-07-06T12:22:06;27.10;52.20
14079;DHT22;7115;50.150;8.568;2022-07-06T12:24:34;27.10;52.00
14079;DHT22;7115;50.150;8.568;2022-07-06T12:27:18;27.10;51.90
14079;DHT22;7115;50.150;8.568;2022-07-06T12:29:46;27.10;51.50
14079;DHT22;7115;50.150;8.568;2022-07-06T12:32:22;27.10;51.50
14079;DHT22;7115;50.150;8.568;2022-07-06T12:35:03;27.10;51.40
14079;DHT22;7115;50.150;8.568;2022-07-06T12:37:31;27.00;51.30
14079;DHT22;7115;50.150;8.568;2022-07-06T12:39:59;27.00;51.40
14079;DHT22;7115;50.150;8.568;2022-07-06T12:42:26;26.70;51.50
14079;DHT22;7115;50.150;8.568;2022-07-06T12:44:55;26.50;51.60
14079;DHT22;7115;50.150;8.568;2022-07-06T12:47:24;26.50;51.80
14079;DHT22;7115;50.150;8.568;2022-07-06T12:50:06;26.50;52.00
14079;DHT22;7115;50.150;8.568;2022-07-06T12:52:34;26.50;51.80
14079;DHT22;7115;50.150;8.568;2022-07-06T12:55:05;26.40;51.90
14079;DHT22;7115;50.150;8.568;2022-07-06T12:57:47;26.20;51.90
14079;DHT22;7115;50.150;8.568;2022-07-06T13:00:16;26.10;51.80
14079;DHT22;7115;50.150;8.568;2022-07-06T13:02:46;26.10;52.10
14079;DHT22;7115;50.150;8.568;2022-07-06T13:05:34;26.00;52.20
14079;DHT22;7115;50.150;8.568;2022-07-06T13:08:03;26.10;52.50
14079;DHT22;7115;50.150;8.568;2022-07-06T13:10:31;26.20;52.50
14079;DHT22;7115;50.150;8.568;2022-07-06T13:13:00;26.20;52.70
14079;DHT22;7115;50.150;8.568;2022-07-06T13:15:27;26.30;52.30
14079;DHT22;7115;50.150;8.568;2022-07-06T13:17:54;26.30;52.20
14079;DHT22;7115;50.150;8.568;2022-07-06T13:20:21;26.30;52.00
14079;DHT22;7115;50.150;8.568;2022-07-06T13:22:47;26.30;51.80
14079;DHT22;7115;50.150;8.568;2022-07-06T13:25:14;26.30;51.70
14079;DHT22;7115;50.150;8.568;2022-07-06T13:27:41;26.20;51.60
14079;DHT22;7115;50.150;8.568;2022-07-06T13:30:09;26.20;51.40
14079;DHT22;7115;50.150;8.568;2022-07-06T13:32:37;26.20;51.30
14079;DHT22;7115;50.150;8.568;2022-07-06T13:35:04;26.20;51.30
14079;DHT22;7115;50.150;8.568;2022-07-06T13:37:30;26.30;51.40
14079;DHT22;7115;50.150;8.568;2022-07-06T13:39:58;26.30;51.40
14079;DHT22;7115;50.150;8.568;2022-07-06T13:42:25;26.30;51.40
14079;DHT22;7115;50.150;8.568;2022-07-06T13:44:51;26.30;51.30
14079;DHT22;7115;50.150;8.568;2022-07-06T13:47:18;26.30;51.80
14079;DHT22;7115;50.150;8.568;2022-07-06T13:49:45;26.40;51.10
14079;DHT22;7115;50.150;8.568;2022-07-06T13:52:14;26.40;50.70
14079;DHT22;7115;50.150;8.568;2022-07-06T13:54:41;26.50;50.40
14079;DHT22;7115;50.150;8.568;2022-07-06T13:57:08;26.40;50.10
14079;DHT22;7115;50.150;8.568;2022-07-06T13:59:35;26.40;49.90
14079;DHT22;7115;50.150;8.568;2022-07-06T14:02:02;26.40;49.90
14079;DHT22;7115;50.150;8.568;2022-07-06T14:04:29;26.50;49.90
14079;DHT22;7115;50.150;8.568;2022-07-06T14:06:56;26.50;50.00
14079;DHT22;7115;50.150;8.568;2022-07-06T14:09:22;26.50;50.20
14079;DHT22;7115;50.150;8.568;2022-07-06T14:11:49;26.40;50.40
14079;DHT22;7115;50.150;8.568;2022-07-06T14:14:16;26.20;50.50
14079;DHT22;7115;50.150;8.568;2022-07-06T14:16:43;26.20;50.70
14079;DHT22;7115;50.150;8.568;2022-07-06T14:19:10;26.10;50.90
14079;DHT22;7115;50.150;8.568;2022-07-06T14:21:44;26.00;51.20
14079;DHT22;7115;50.150;8.568;2022-07-06T14:24:13;25.90;51.50
14079;DHT22;7115;50.150;8.568;2022-07-06T14:26:40;26.00;51.60
14079;DHT22;7115;50.150;8.568;2022-07-06T14:29:07;26.10;51.50
14079;DHT22;7115;50.150;8.568;2022-07-06T14:31:33;26.10;51.40
14079;DHT22;7115;50.150;8.568;2022-07-06T14:34:00;26.20;51.30
14079;DHT22;7115;50.150;8.568;2022-07-06T14:36:27;26.20;51.30
14079;DHT22;7115;50.150;8.568;2022-07-06T14:38:54;26.20;51.10
14079;DHT22;7115;50.150;8.568;2022-07-06T14:41:21;26.20;51.00
14079;DHT22;7115;50.150;8.568;2022-07-06T14:43:48;26.00;50.90
14079;DHT22;7115;50.150;8.568;2022-07-06T14:46:15;25.90;50.90
14079;DHT22;7115;50.150;8.568;2022-07-06T14:48:42;25.70;51.10
14079;DHT22;7115;50.150;8.568;2022-07-06T14:51:09;25.40;51.50
14079;DHT22;7115;50.150;8.568;2022-07-06T14:53:36;25.10;52.00
14079;DHT22;7115;50.150;8.568;2022-07-06T14:56:04;24.90;52.40
14079;DHT22;7115;50.150;8.568;2022-07-06T14:58:31;24.70;52.70
14079;DHT22;7115;50.150;8.568;2022-07-06T15:00:58;24.50;53.20
14079;DHT22;7115;50.150;8.568;2022-07-06T15:03:26;24.30;53.40
14079;DHT22;7115;50.150;8.568;2022-07-06T15:05:54;24.10;53.80
14079;DHT22;7115;50.150;8.568;2022-07-06T15:08:21;24.00;54.10
14079;DHT22;7115;50.150;8.568;2022-07-06T15:10:48;23.80;54.30
14079;DHT22;7115;50.150;8.568;2022-07-06T15:13:16;23.80;54.50
14079;DHT22;7115;50.150;8.568;2022-07-06T15:15:42;23.80;54.70
14079;DHT22;7115;50.150;8.568;2022-07-06T15:18:25;23.80;55.00
14079;DHT22;7115;50.150;8.568;2022-07-06T15:20:52;23.80;55.00
14079;DHT22;7115;50.150;8.568;2022-07-06T15:23:20;23.80;55.00
14079;DHT22;7115;50.150;8.568;2022-07-06T15:25:46;23.70;55.10
14079;DHT22;7115;50.150;8.568;2022-07-06T15:28:22;23.70;55.10
14079;DHT22;7115;50.150;8.568;2022-07-06T15:30:51;23.70;55.10
14079;DHT22;7115;50.150;8.568;2022-07-06T15:33:18;23.60;55.20
14079;DHT22;7115;50.150;8.568;2022-07-06T15:35:44;23.60;55.20
14079;DHT22;7115;50.150;8.568;2022-07-06T15:38:11;23.70;55.40
14079;DHT22;7115;50.150;8.568;2022-07-06T15:40:38;23.60;55.30
14079;DHT22;7115;50.150;8.568;2022-07-06T15:43:07;23.60;55.30
14079;DHT22;7115;50.150;8.568;2022-07-06T15:45:34;23.70;55.40
14079;DHT22;7115;50.150;8.568;2022-07-06T15:48:03;23.60;55.20
14079;DHT22;7115;50.150;8.568;2022-07-06T15:50:30;23.40;54.80
14079;DHT22;7115;50.150;8.568;2022-07-06T15:52:57;23.70;55.30
14079;DHT22;7115;50.150;8.568;2022-07-06T15:55:24;23.80;55.20
14079;DHT22;7115;50.150;8.568;2022-07-06T15:57:53;23.80;55.20
14079;DHT22;7115;50.150;8.568;2022-07-06T16:00:20;23.90;55.20
14079;DHT22;7115;50.150;8.568;2022-07-06T16:02:47;23.90;55.20